sensor_id;sensor_type;location;lat;lon;timestamp;pressure;altitude;pressure_sealevel;temperature;humidity
22964;BME280;11648;49.306;6.934;2024-03-02T00:00:28;97041.63;;;13.67;46.70
22964;BME280;11648;49.306;6.934;2024-03-02T00:02:55;97040.69;;;13.87;46.47
22964;BME280;11648;49.306;6.934;2024-03-02T00:05:22;97032.69;;;13.89;46.45
22964;BME280;11648;49.306;6.934;2024-03-02T00:07:58;97038.91;;;13.88;46.16
22964;BME280;11648;49.306;6.934;2024-03-02T00:10:27;97040.19;;;13.98;45.94
22964;BME280;11648;49.306;6.934;2024-03-02T00:12:58;97037.06;;;13.90;45.86
22964;BME280;11648;49.306;6.934;2024-03-02T00:18:12;97020.25;;;13.91;45.71
22964;BME280;11648;49.306;6.934;2024-03-02T00:20:40;97007.03;;;13.91;46.00
22964;BME280;11648;49.306;6.934;2024-03-02T00:23:09;97018.97;;;13.99;45.40
22964;BME280;11648;49.306;6.934;2024-03-02T00:25:41;97014.03;;;13.92;45.33
22964;BME280;11648;49.306;6.934;2024-03-02T00:28:20;97018.97;;;13.99;45.19
22964;BME280;11648;49.306;6.934;2024-03-02T00:33:16;97022.63;;;13.97;45.17
22964;BME280;11648;49.306;6.934;2024-03-02T00:35:44;97018.81;;;14.02;44.73
22964;BME280;11648;49.306;6.934;2024-03-02T00:38:12;97015.47;;;13.99;44.27
22964;BME280;11648;49.306;6.934;2024-03-02T00:40:42;97021.41;;;14.04;44.02
22964;BME280;11648;49.306;6.934;2024-03-02T00:45:58;97015.75;;;14.11;44.06
22964;BME280;11648;49.306;6.934;2024-03-02T00:48:25;97016.69;;;14.10;43.86
22964;BME280;11648;49.306;6.934;2024-03-02T00:50:55;97016.19;;;14.02;44.38
22964;BME280;11648;49.306;6.934;2024-03-02T00:53:23;97019.63;;;14.04;43.81
22964;BME280;11648;49.306;6.934;2024-03-02T00:55:51;97004.06;;;14.15;43.71
22964;BME280;11648;49.306;6.934;2024-03-02T00:58:18;97006.25;;;14.07;43.65
22964;BME280;11648;49.306;6.934;2024-03-02T01:00:45;97005.94;;;14.13;43.99
22964;BME280;11648;49.306;6.934;2024-03-02T01:03:12;97007.72;;;14.13;43.63
22964;BME280;11648;49.306;6.934;2024-03-02T01:05:42;97005.44;;;14.05;43.50
22964;BME280;11648;49.306;6.934;2024-03-02T01:08:10;97006.75;;;13.97;44.00
22964;BME280;11648;49.306;6.934;2024-03-02T01:10:37;97014.97;;;13.91;43.94
22964;BME280;11648;49.306;6.934;2024-03-02T01:13:04;97010.03;;;13.83;44.04
22964;BME280;11648;49.306;6.934;2024-03-02T01:15:31;97013.69;;;13.80;44.31
22964;BME280;11648;49.306;6.934;2024-03-02T01:17:57;97013.25;;;13.90;44.28
22964;BME280;11648;49.306;6.934;2024-03-02T01:20:24;97017.25;;;13.98;44.02
22964;BME280;11648;49.306;6.934;2024-03-02T01:22:51;97012.19;;;13.75;44.08
22964;BME280;11648;49.306;6.934;2024-03-02T01:25:18;97021.31;;;13.86;43.82
22964;BME280;11648;49.306;6.934;2024-03-02T01:27:45;97017.47;;;13.56;44.10
22964;BME280;11648;49.306;6.934;2024-03-02T01:30:16;97021.94;;;13.54;44.26
22964;BME280;11648;49.306;6.934;2024-03-02T01:32:43;97017.75;;;13.50;44.42
22964;BME280;11648;49.306;6.934;2024-03-02T01:35:10;97019.59;;;13.48;44.40
22964;BME280;11648;49.306;6.934;2024-03-02T01:37:36;97014.75;;;13.58;44.45
22964;BME280;11648;49.306;6.934;2024-03-02T01:40:04;97003.22;;;13.40;44.67
22964;BME280;11648;49.306;6.934;2024-03-02T01:42:39;97012.00;;;13.41;44.73
22964;BME280;11648;49.306;6.934;2024-03-02T01:45:07;97006.59;;;13.62;43.97
22964;BME280;11648;49.306;6.934;2024-03-02T01:47:34;96994.25;;;13.63;43.81
22964;BME280;11648;49.306;6.934;2024-03-02T01:50:01;96998.53;;;13.65;43.78
22964;BME280;11648;49.306;6.934;2024-03-02T01:52:28;97001.63;;;13.75;43.64
22964;BME280;11648;49.306;6.934;2024-03-02T01:54:57;97009.97;;;13.84;43.34
22964;BME280;11648;49.306;6.934;2024-03-02T01:57:24;97008.75;;;13.92;43.38
22964;BME280;11648;49.306;6.934;2024-03-02T01:59:51;97004.75;;;13.83;42.92
22964;BME280;11648;49.306;6.934;2024-03-02T02:02:19;97004.25;;;13.75;43.32
22964;BME280;11648;49.306;6.934;2024-03-02T02:04:46;96998.72;;;13.79;43.16
22964;BME280;11648;49.306;6.934;2024-03-02T02:07:13;96997.81;;;13.80;43.20
22964;BME280;11648;49.306;6.934;2024-03-02T02:09:41;96990.19;;;13.74;43.04
22964;BME280;11648;49.306;6.934;2024-03-02T02:12:11;96996.03;;;13.62;43.71
22964;BME280;11648;49.306;6.934;2024-03-02T02:14:39;96992.50;;;13.62;43.57
22964;BME280;11648;49.306;6.934;2024-03-02T02:17:09;96994.03;;;13.67;43.57
22964;BME280;11648;49.306;6.934;2024-03-02T02:19:36;96999.13;;;13.72;43.58
22964;BME280;11648;49.306;6.934;2024-03-02T02:22:03;96996.03;;;13.81;43.16
22964;BME280;11648;49.306;6.934;2024-03-02T02:24:30;96990.38;;;13.70;43.43
22964;BME280;11648;49.306;6.934;2024-03-02T02:26:57;96998.16;;;13.92;42.89
22964;BME280;11648;49.306;6.934;2024-03-02T02:29:24;96989.38;;;13.91;43.22
22964;BME280;11648;49.306;6.934;2024-03-02T02:31:51;96986.47;;;13.78;42.94
22964;BME280;11648;49.306;6.934;2024-03-02T02:34:18;96983.81;;;13.97;43.15
22964;BME280;11648;49.306;6.934;2024-03-02T02:36:44;96964.47;;;14.14;42.47
22964;BME280;11648;49.306;6.934;2024-03-02T02:39:14;96969.41;;;14.03;42.34
22964;BME280;11648;49.306;6.934;2024-03-02T02:41:42;96963.75;;;14.10;42.62
22964;BME280;11648;49.306;6.934;2024-03-02T02:44:09;96956.75;;;14.09;42.55
22964;BME280;11648;49.306;6.934;2024-03-02T02:46:40;96959.88;;;14.17;42.26
22964;BME280;11648;49.306;6.934;2024-03-02T02:49:07;96956.34;;;14.00;42.54
22964;BME280;11648;49.306;6.934;2024-03-02T02:51:34;96954.66;;;14.16;41.92
22964;BME280;11648;49.306;6.934;2024-03-02T02:54:00;96957.56;;;14.28;41.79
22964;BME280;11648;49.306;6.934;2024-03-02T02:56:27;96953.81;;;14.32;41.87
22964;BME280;11648;49.306;6.934;2024-03-02T02:58:54;96952.16;;;14.13;42.01
22964;BME280;11648;49.306;6.934;2024-03-02T03:01:21;96952.81;;;13.99;42.22
22964;BME280;11648;49.306;6.934;2024-03-02T03:03:48;96952.88;;;14.33;41.55
22964;BME280;11648;49.306;6.934;2024-03-02T03:06:15;96950.31;;;14.32;42.13
22964;BME280;11648;49.306;6.934;2024-03-02T03:08:42;96944.22;;;14.30;42.13
22964;BME280;11648;49.306;6.934;2024-03-02T03:11:09;96952.09;;;14.31;41.55
22964;BME280;11648;49.306;6.934;2024-03-02T03:13:36;96937.81;;;14.36;41.60
22964;BME280;11648;49.306;6.934;2024-03-02T03:16:03;96941.16;;;14.39;41.53
22964;BME280;11648;49.306;6.934;2024-03-02T03:18:30;96938.81;;;14.33;42.09
22964;BME280;11648;49.306;6.934;2024-03-02T03:20:57;96948.56;;;14.50;41.47
22964;BME280;11648;49.306;6.934;2024-03-02T03:23:24;96951.97;;;14.52;41.58
22964;BME280;11648;49.306;6.934;2024-03-02T03:25:52;96950.53;;;14.46;41.59
22964;BME280;11648;49.306;6.934;2024-03-02T03:28:19;96959.06;;;14.51;41.42
22964;BME280;11648;49.306;6.934;2024-03-02T03:30:46;96955.91;;;14.62;41.45
22964;BME280;11648;49.306;6.934;2024-03-02T03:33:13;96958.47;;;14.46;41.11
22964;BME280;11648;49.306;6.934;2024-03-02T03:35:40;96952.56;;;14.58;41.55
22964;BME280;11648;49.306;6.934;2024-03-02T03:38:07;96946.69;;;14.52;41.45
22964;BME280;11648;49.306;6.934;2024-03-02T03:40:33;96950.63;;;14.62;41.21
22964;BME280;11648;49.306;6.934;2024-03-02T03:43:00;96946.16;;;14.45;41.75
22964;BME280;11648;49.306;6.934;2024-03-02T03:45:27;96948.03;;;14.60;41.54
22964;BME280;11648;49.306;6.934;2024-03-02T03:47:54;96949.75;;;14.61;40.96
22964;BME280;11648;49.306;6.934;2024-03-02T03:50:21;96953.16;;;14.46;41.30
22964;BME280;11648;49.306;6.934;2024-03-02T03:52:48;96945.75;;;14.53;41.64
22964;BME280;11648;49.306;6.934;2024-03-02T03:55:15;96948.41;;;14.53;41.96
22964;BME280;11648;49.306;6.934;2024-03-02T03:57:42;96953.53;;;14.56;41.85
22964;BME280;11648;49.306;6.934;2024-03-02T04:00:09;96963.28;;;14.55;41.81
22964;BME280;11648;49.306;6.934;2024-03-02T04:02:40;96965.88;;;14.57;41.56
22964;BME280;11648;49.306;6.934;2024-03-02T04:05:07;96972.63;;;14.45;41.69
22964;BME280;11648;49.306;6.934;2024-03-02T04:07:38;96974.81;;;14.54;41.40
22964;BME280;11648;49.306;6.934;2024-03-02T04:10:08;96981.75;;;14.57;41.64
22964;BME280;11648;49.306;6.934;2024-03-02T04:12:36;96981.75;;;14.57;41.41
22964;BME280;11648;49.306;6.934;2024-03-02T04:15:05;96974.03;;;14.35;41.43
22964;BME280;11648;49.306;6.934;2024-03-02T04:17:33;96979.03;;;14.58;41.12
22964;BME280;11648;49.306;6.934;2024-03-02T04:20:01;96977.84;;;14.47;41.17
22964;BME280;11648;49.306;6.934;2024-03-02T04:22:28;96982.13;;;14.49;41.03
22964;BME280;11648;49.306;6.934;2024-03-02T04:24:55;96982.84;;;14.53;41.13
22964;BME280;11648;49.306;6.934;2024-03-02T04:27:22;96991.09;;;14.64;41.42
22964;BME280;11648;49.306;6.934;2024-03-02T04:29:49;96989.53;;;14.60;41.10
22964;BME280;11648;49.306;6.934;2024-03-02T04:32:16;96990.88;;;14.68;41.33
22964;BME280;11648;49.306;6.934;2024-03-02T04:34:43;96985.88;;;14.62;41.36
22964;BME280;11648;49.306;6.934;2024-03-02T04:37:11;96985.69;;;14.48;41.41
22964;BME280;11648;49.306;6.934;2024-03-02T04:39:39;96987.91;;;14.57;41.05
22964;BME280;11648;49.306;6.934;2024-03-02T04:42:06;96985.31;;;14.56;41.55
22964;BME280;11648;49.306;6.934;2024-03-02T04:44:33;96980.78;;;14.41;41.89
22964;BME280;11648;49.306;6.934;2024-03-02T04:47:05;96992.78;;;14.48;41.32
22964;BME280;11648;49.306;6.934;2024-03-02T04:49:32;96997.31;;;14.46;41.81
22964;BME280;11648;49.306;6.934;2024-03-02T04:51:59;96999.09;;;14.62;41.28
22964;BME280;11648;49.306;6.934;2024-03-02T04:54:26;96995.84;;;14.57;41.53
22964;BME280;11648;49.306;6.934;2024-03-02T04:56:52;97001.22;;;14.56;41.53
22964;BME280;11648;49.306;6.934;2024-03-02T04:59:20;96996.16;;;14.68;41.63
22964;BME280;11648;49.306;6.934;2024-03-02T05:01:46;97004.88;;;14.53;41.78
22964;BME280;11648;49.306;6.934;2024-03-02T05:04:14;97005.72;;;14.37;42.21
22964;BME280;11648;49.306;6.934;2024-03-02T05:06:41;97009.63;;;14.47;42.37
22964;BME280;11648;49.306;6.934;2024-03-02T05:09:08;97011.09;;;14.33;42.62
22964;BME280;11648;49.306;6.934;2024-03-02T05:11:35;97019.34;;;14.46;42.65
22964;BME280;11648;49.306;6.934;2024-03-02T05:14:06;97009.28;;;14.36;42.92
22964;BME280;11648;49.306;6.934;2024-03-02T05:16:36;96999.81;;;14.49;43.07
22964;BME280;11648;49.306;6.934;2024-03-02T05:19:07;96998.78;;;14.51;43.07
22964;BME280;11648;49.306;6.934;2024-03-02T05:21:34;97001.25;;;14.37;43.37
22964;BME280;11648;49.306;6.934;2024-03-02T05:24:01;97010.53;;;14.10;43.87
22964;BME280;11648;49.306;6.934;2024-03-02T05:26:29;97011.78;;;14.20;43.96
22964;BME280;11648;49.306;6.934;2024-03-02T05:28:55;96999.94;;;14.10;44.17
22964;BME280;11648;49.306;6.934;2024-03-02T05:31:22;97008.53;;;14.15;43.85
22964;BME280;11648;49.306;6.934;2024-03-02T05:33:49;97013.91;;;14.30;43.81
22964;BME280;11648;49.306;6.934;2024-03-02T05:36:21;97031.63;;;14.11;43.94
22964;BME280;11648;49.306;6.934;2024-03-02T05:38:48;97025.66;;;14.25;43.62
22964;BME280;11648;49.306;6.934;2024-03-02T05:41:15;97027.66;;;14.39;43.87
22964;BME280;11648;49.306;6.934;2024-03-02T05:43:42;97023.84;;;14.44;43.44
22964;BME280;11648;49.306;6.934;2024-03-02T05:46:08;97026.59;;;14.24;44.01
22964;BME280;11648;49.306;6.934;2024-03-02T05:48:35;97028.69;;;14.17;44.31
22964;BME280;11648;49.306;6.934;2024-03-02T05:51:02;97029.63;;;14.33;44.27
22964;BME280;11648;49.306;6.934;2024-03-02T05:53:30;97028.56;;;14.56;43.89
22964;BME280;11648;49.306;6.934;2024-03-02T05:55:56;97027.00;;;14.52;44.22
22964;BME280;11648;49.306;6.934;2024-03-02T05:58:23;97022.00;;;14.46;44.16
22964;BME280;11648;49.306;6.934;2024-03-02T06:01:13;97015.63;;;14.50;44.21
22964;BME280;11648;49.306;6.934;2024-03-02T06:03:42;97029.56;;;14.54;44.35
22964;BME280;11648;49.306;6.934;2024-03-02T06:06:09;97037.50;;;14.37;44.08
22964;BME280;11648;49.306;6.934;2024-03-02T06:08:36;97042.09;;;14.31;44.15
22964;BME280;11648;49.306;6.934;2024-03-02T06:11:03;97034.53;;;14.43;43.67
22964;BME280;11648;49.306;6.934;2024-03-02T06:13:30;97031.34;;;14.53;44.06
22964;BME280;11648;49.306;6.934;2024-03-02T06:15:57;97038.22;;;14.57;43.92
22964;BME280;11648;49.306;6.934;2024-03-02T06:18:24;97041.41;;;14.47;44.04
22964;BME280;11648;49.306;6.934;2024-03-02T06:20:51;97046.19;;;14.39;43.91
22964;BME280;11648;49.306;6.934;2024-03-02T06:23:18;97053.13;;;14.41;44.90
22964;BME280;11648;49.306;6.934;2024-03-02T06:25:45;97049.59;;;14.59;44.18
22964;BME280;11648;49.306;6.934;2024-03-02T06:28:12;97063.84;;;14.57;44.99
22964;BME280;11648;49.306;6.934;2024-03-02T06:30:41;97062.16;;;14.37;44.62
22964;BME280;11648;49.306;6.934;2024-03-02T06:33:09;97062.78;;;14.42;44.72
22964;BME280;11648;49.306;6.934;2024-03-02T06:35:36;97073.03;;;14.50;44.53
22964;BME280;11648;49.306;6.934;2024-03-02T06:38:03;97067.97;;;14.08;45.22
22964;BME280;11648;49.306;6.934;2024-03-02T06:40:30;97058.13;;;14.28;44.65
22964;BME280;11648;49.306;6.934;2024-03-02T06:42:57;97069.88;;;14.42;44.35
22964;BME280;11648;49.306;6.934;2024-03-02T06:45:24;97063.44;;;14.47;44.43
22964;BME280;11648;49.306;6.934;2024-03-02T06:47:51;97063.84;;;14.19;44.34
22964;BME280;11648;49.306;6.934;2024-03-02T06:50:18;97059.13;;;14.45;44.45
22964;BME280;11648;49.306;6.934;2024-03-02T06:52:45;97060.19;;;14.59;44.01
22964;BME280;11648;49.306;6.934;2024-03-02T06:55:11;97058.31;;;14.61;43.81
22964;BME280;11648;49.306;6.934;2024-03-02T06:57:38;97062.44;;;14.50;43.91
22964;BME280;11648;49.306;6.934;2024-03-02T07:00:07;97056.72;;;14.40;44.38
22964;BME280;11648;49.306;6.934;2024-03-02T07:02:35;97059.97;;;14.64;43.61
22964;BME280;11648;49.306;6.934;2024-03-02T07:05:03;97067.84;;;14.65;43.96
22964;BME280;11648;49.306;6.934;2024-03-02T07:07:30;97065.25;;;14.64;44.04
22964;BME280;11648;49.306;6.934;2024-03-02T07:09:58;97063.63;;;14.78;43.68
22964;BME280;11648;49.306;6.934;2024-03-02T07:12:25;97065.91;;;14.86;43.69
22964;BME280;11648;49.306;6.934;2024-03-02T07:14:52;97072.50;;;14.77;44.08
22964;BME280;11648;49.306;6.934;2024-03-02T07:17:31;97070.03;;;14.92;44.06
22964;BME280;11648;49.306;6.934;2024-03-02T07:19:58;97064.13;;;15.04;44.29
22964;BME280;11648;49.306;6.934;2024-03-02T07:22:25;97065.16;;;15.01;45.89
22964;BME280;11648;49.306;6.934;2024-03-02T07:24:52;97065.59;;;15.09;45.38
22964;BME280;11648;49.306;6.934;2024-03-02T07:27:19;97067.00;;;15.16;45.54
22964;BME280;11648;49.306;6.934;2024-03-02T07:29:46;97063.34;;;15.19;45.94
22964;BME280;11648;49.306;6.934;2024-03-02T07:32:13;97071.03;;;15.23;45.52
22964;BME280;11648;49.306;6.934;2024-03-02T07:34:40;97070.09;;;15.24;44.97
22964;BME280;11648;49.306;6.934;2024-03-02T07:37:07;97058.91;;;15.19;45.74
22964;BME280;11648;49.306;6.934;2024-03-02T07:39:33;97068.00;;;15.31;45.79
22964;BME280;11648;49.306;6.934;2024-03-02T07:42:00;97072.19;;;15.35;45.32
22964;BME280;11648;49.306;6.934;2024-03-02T07:44:27;97067.13;;;15.48;44.73
22964;BME280;11648;49.306;6.934;2024-03-02T07:46:54;97063.69;;;15.46;44.67
22964;BME280;11648;49.306;6.934;2024-03-02T07:49:21;97067.88;;;15.51;45.23
22964;BME280;11648;49.306;6.934;2024-03-02T07:51:48;97069.25;;;15.58;45.30
22964;BME280;11648;49.306;6.934;2024-03-02T07:54:16;97067.53;;;15.40;45.65
22964;BME280;11648;49.306;6.934;2024-03-02T07:56:44;97077.88;;;15.45;45.58
22964;BME280;11648;49.306;6.934;2024-03-02T07:59:11;97081.09;;;15.34;45.67
22964;BME280;11648;49.306;6.934;2024-03-02T08:01:38;97080.81;;;15.23;46.42
22964;BME280;11648;49.306;6.934;2024-03-02T08:04:06;97083.28;;;15.43;46.04
22964;BME280;11648;49.306;6.934;2024-03-02T08:06:33;97079.13;;;15.38;45.85
22964;BME280;11648;49.306;6.934;2024-03-02T08:09:00;97079.06;;;15.39;45.79
22964;BME280;11648;49.306;6.934;2024-03-02T08:11:27;97074.84;;;15.35;45.77
22964;BME280;11648;49.306;6.934;2024-03-02T08:13:55;97084.69;;;15.16;45.73
22964;BME280;11648;49.306;6.934;2024-03-02T08:16:22;97079.28;;;15.34;46.12
22964;BME280;11648;49.306;6.934;2024-03-02T08:18:50;97083.44;;;15.40;45.88
22964;BME280;11648;49.306;6.934;2024-03-02T08:21:17;97091.72;;;15.51;45.35
22964;BME280;11648;49.306;6.934;2024-03-02T08:23:45;97082.75;;;15.54;44.74
22964;BME280;11648;49.306;6.934;2024-03-02T08:26:11;97078.50;;;15.67;44.54
22964;BME280;11648;49.306;6.934;2024-03-02T08:28:39;97081.16;;;15.67;44.50
22964;BME280;11648;49.306;6.934;2024-03-02T08:31:07;97079.69;;;15.61;44.39
22964;BME280;11648;49.306;6.934;2024-03-02T08:33:35;97088.22;;;15.84;44.41
22964;BME280;11648;49.306;6.934;2024-03-02T08:36:05;97080.28;;;15.66;44.36
22964;BME280;11648;49.306;6.934;2024-03-02T08:38:32;97089.97;;;15.67;44.85
22964;BME280;11648;49.306;6.934;2024-03-02T08:40:59;97087.38;;;15.99;44.04
22964;BME280;11648;49.306;6.934;2024-03-02T08:43:26;97086.97;;;15.91;44.20
22964;BME280;11648;49.306;6.934;2024-03-02T08:45:52;97087.75;;;16.08;43.34
22964;BME280;11648;49.306;6.934;2024-03-02T08:48:19;97076.28;;;16.08;43.08
22964;BME280;11648;49.306;6.934;2024-03-02T08:50:47;97084.84;;;16.28;42.63
22964;BME280;11648;49.306;6.934;2024-03-02T08:53:14;97081.94;;;16.33;41.99
22964;BME280;11648;49.306;6.934;2024-03-02T08:55:46;97074.41;;;16.72;41.58
22964;BME280;11648;49.306;6.934;2024-03-02T08:58:13;97076.66;;;16.64;41.31
22964;BME280;11648;49.306;6.934;2024-03-02T09:00:40;97077.69;;;16.62;41.35
22964;BME280;11648;49.306;6.934;2024-03-02T09:03:07;97070.91;;;16.72;40.86
22964;BME280;11648;49.306;6.934;2024-03-02T09:05:34;97068.72;;;16.78;40.48
22964;BME280;11648;49.306;6.934;2024-03-02T09:08:01;97067.88;;;16.78;40.35
22964;BME280;11648;49.306;6.934;2024-03-02T09:10:30;97057.03;;;16.97;39.64
22964;BME280;11648;49.306;6.934;2024-03-02T09:12:58;97060.47;;;17.43;39.67
22964;BME280;11648;49.306;6.934;2024-03-02T09:15:24;97062.22;;;18.00;38.42
22964;BME280;11648;49.306;6.934;2024-03-02T09:17:51;97054.84;;;18.32;37.75
22964;BME280;11648;49.306;6.934;2024-03-02T09:20:18;97045.22;;;19.37;36.21
22964;BME280;11648;49.306;6.934;2024-03-02T09:22:45;97036.75;;;20.67;34.56
22964;BME280;11648;49.306;6.934;2024-03-02T09:25:14;97020.00;;;22.37;32.22
22964;BME280;11648;49.306;6.934;2024-03-02T09:27:42;97004.09;;;24.02;29.64
22964;BME280;11648;49.306;6.934;2024-03-02T09:30:10;96989.78;;;25.39;27.68
22964;BME280;11648;49.306;6.934;2024-03-02T09:32:37;96977.03;;;26.79;26.03
22964;BME280;11648;49.306;6.934;2024-03-02T09:35:05;96959.25;;;28.25;23.52
22964;BME280;11648;49.306;6.934;2024-03-02T09:37:32;96951.25;;;28.65;23.11
22964;BME280;11648;49.306;6.934;2024-03-02T09:39:59;96935.94;;;29.06;22.42
22964;BME280;11648;49.306;6.934;2024-03-02T09:42:26;96938.63;;;30.42;21.52
22964;BME280;11648;49.306;6.934;2024-03-02T09:44:54;96931.56;;;30.64;20.67
22964;BME280;11648;49.306;6.934;2024-03-02T09:47:20;96928.31;;;30.99;20.41
22964;BME280;11648;49.306;6.934;2024-03-02T09:49:47;96940.41;;;32.09;20.04
22964;BME280;11648;49.306;6.934;2024-03-02T09:52:15;96932.94;;;31.13;19.94
22964;BME280;11648;49.306;6.934;2024-03-02T09:54:42;96938.16;;;32.27;18.85
22964;BME280;11648;49.306;6.934;2024-03-02T09:57:10;96949.25;;;31.13;19.06
22964;BME280;11648;49.306;6.934;2024-03-02T09:59:36;96957.00;;;30.71;19.79
22964;BME280;11648;49.306;6.934;2024-03-02T10:02:04;96959.16;;;31.29;19.63
22964;BME280;11648;49.306;6.934;2024-03-02T10:04:34;96957.47;;;31.28;19.76
22964;BME280;11648;49.306;6.934;2024-03-02T10:07:14;96956.28;;;30.77;20.09
22964;BME280;11648;49.306;6.934;2024-03-02T10:09:43;96956.91;;;31.55;19.83
22964;BME280;11648;49.306;6.934;2024-03-02T10:12:12;96955.97;;;31.03;19.79
22964;BME280;11648;49.306;6.934;2024-03-02T10:14:39;96950.44;;;32.23;18.58
22964;BME280;11648;49.306;6.934;2024-03-02T10:17:10;96938.75;;;32.58;18.23
22964;BME280;11648;49.306;6.934;2024-03-02T10:19:38;96937.41;;;31.52;18.47
22964;BME280;11648;49.306;6.934;2024-03-02T10:22:07;96947.44;;;32.03;18.86
22964;BME280;11648;49.306;6.934;2024-03-02T10:24:44;96944.53;;;31.53;19.03
22964;BME280;11648;49.306;6.934;2024-03-02T10:27:18;96936.59;;;31.66;19.65
22964;BME280;11648;49.306;6.934;2024-03-02T10:29:46;96935.66;;;31.51;19.67
22964;BME280;11648;49.306;6.934;2024-03-02T10:32:14;96948.28;;;31.06;19.68
22964;BME280;11648;49.306;6.934;2024-03-02T10:34:42;96941.72;;;30.23;20.40
22964;BME280;11648;49.306;6.934;2024-03-02T10:37:13;96948.66;;;30.72;20.67
22964;BME280;11648;49.306;6.934;2024-03-02T10:39:40;96952.88;;;29.08;21.59
22964;BME280;11648;49.306;6.934;2024-03-02T10:42:08;96942.56;;;28.45;22.36
22964;BME280;11648;49.306;6.934;2024-03-02T10:44:35;96940.84;;;28.86;21.95
22964;BME280;11648;49.306;6.934;2024-03-02T10:47:05;96943.75;;;29.66;21.58
22964;BME280;11648;49.306;6.934;2024-03-02T10:49:32;96933.22;;;29.87;20.97
22964;BME280;11648;49.306;6.934;2024-03-02T10:52:00;96922.72;;;30.93;20.06
22964;BME280;11648;49.306;6.934;2024-03-02T10:54:28;96915.69;;;31.06;20.34
22964;BME280;11648;49.306;6.934;2024-03-02T10:57:04;96912.47;;;30.49;20.26
22964;BME280;11648;49.306;6.934;2024-03-02T10:59:35;96908.28;;;31.15;20.45
22964;BME280;11648;49.306;6.934;2024-03-02T11:02:03;96904.16;;;32.08;19.41
22964;BME280;11648;49.306;6.934;2024-03-02T11:04:32;96899.72;;;33.08;18.64
22964;BME280;11648;49.306;6.934;2024-03-02T11:07:09;96900.75;;;32.36;19.28
22964;BME280;11648;49.306;6.934;2024-03-02T11:09:41;96898.53;;;32.10;19.27
22964;BME280;11648;49.306;6.934;2024-03-02T11:12:25;96897.34;;;32.63;18.53
22964;BME280;11648;49.306;6.934;2024-03-02T11:14:56;96893.72;;;32.26;19.29
22964;BME280;11648;49.306;6.934;2024-03-02T11:17:23;96895.00;;;32.60;18.98
22964;BME280;11648;49.306;6.934;2024-03-02T11:19:51;96898.47;;;32.90;18.52
22964;BME280;11648;49.306;6.934;2024-03-02T11:22:19;96890.72;;;33.57;18.27
22964;BME280;11648;49.306;6.934;2024-03-02T11:24:48;96899.72;;;31.78;19.79
22964;BME280;11648;49.306;6.934;2024-03-02T11:33:07;96879.16;;;33.55;18.14
22964;BME280;11648;49.306;6.934;2024-03-02T11:35:38;96870.81;;;32.21;19.14
22964;BME280;11648;49.306;6.934;2024-03-02T11:38:09;96870.19;;;31.90;19.57
22964;BME280;11648;49.306;6.934;2024-03-02T11:40:36;96879.50;;;30.52;20.87
22964;BME280;11648;49.306;6.934;2024-03-02T11:43:04;96878.13;;;29.70;21.60
22964;BME280;11648;49.306;6.934;2024-03-02T11:45:31;96872.59;;;28.75;22.82
22964;BME280;11648;49.306;6.934;2024-03-02T11:48:00;96871.16;;;28.30;22.64
22964;BME280;11648;49.306;6.934;2024-03-02T11:50:34;96873.47;;;26.71;24.46
22964;BME280;11648;49.306;6.934;2024-03-02T11:53:02;96880.25;;;26.22;25.51
22964;BME280;11648;49.306;6.934;2024-03-02T11:55:34;96890.88;;;25.59;26.49
22964;BME280;11648;49.306;6.934;2024-03-02T11:58:05;96882.81;;;25.40;26.98
22964;BME280;11648;49.306;6.934;2024-03-02T12:00:33;96880.22;;;25.21;27.21
22964;BME280;11648;49.306;6.934;2024-03-02T12:03:02;96880.78;;;25.15;27.22
22964;BME280;11648;49.306;6.934;2024-03-02T12:05:30;96882.78;;;24.65;27.92
22964;BME280;11648;49.306;6.934;2024-03-02T12:07:59;96871.16;;;24.16;28.39
22964;BME280;11648;49.306;6.934;2024-03-02T12:10:26;96884.94;;;23.52;29.37
22964;BME280;11648;49.306;6.934;2024-03-02T12:13:01;96880.38;;;23.53;29.33
22964;BME280;11648;49.306;6.934;2024-03-02T12:15:31;96869.75;;;24.70;28.51
22964;BME280;11648;49.306;6.934;2024-03-02T12:18:00;96852.22;;;24.56;28.49
22964;BME280;11648;49.306;6.934;2024-03-02T12:20:30;96860.88;;;24.00;28.84
22964;BME280;11648;49.306;6.934;2024-03-02T12:22:58;96862.09;;;24.17;29.24
22964;BME280;11648;49.306;6.934;2024-03-02T12:25:26;96869.13;;;23.99;29.40
22964;BME280;11648;49.306;6.934;2024-03-02T12:27:56;96858.09;;;23.52;29.66
22964;BME280;11648;49.306;6.934;2024-03-02T12:30:23;96863.88;;;23.06;30.90
22964;BME280;11648;49.306;6.934;2024-03-02T12:32:50;96873.25;;;22.71;30.96
22964;BME280;11648;49.306;6.934;2024-03-02T12:35:18;96871.88;;;22.44;31.38
22964;BME280;11648;49.306;6.934;2024-03-02T12:37:47;96876.13;;;22.15;31.96
22964;BME280;11648;49.306;6.934;2024-03-02T12:40:16;96861.34;;;22.21;31.91
22964;BME280;11648;49.306;6.934;2024-03-02T12:42:46;96862.50;;;22.07;31.90
22964;BME280;11648;49.306;6.934;2024-03-02T12:45:13;96869.97;;;21.92;32.69
22964;BME280;11648;49.306;6.934;2024-03-02T12:47:41;96860.97;;;21.71;32.88
22964;BME280;11648;49.306;6.934;2024-03-02T12:50:09;96872.03;;;21.66;32.75
22964;BME280;11648;49.306;6.934;2024-03-02T12:52:36;96872.19;;;21.76;33.05
22964;BME280;11648;49.306;6.934;2024-03-02T12:55:06;96876.22;;;21.37;33.34
22964;BME280;11648;49.306;6.934;2024-03-02T12:57:34;96874.25;;;21.28;33.60
22964;BME280;11648;49.306;6.934;2024-03-02T13:00:03;96874.25;;;20.71;33.91
22964;BME280;11648;49.306;6.934;2024-03-02T13:02:39;96872.28;;;21.08;33.86
22964;BME280;11648;49.306;6.934;2024-03-02T13:05:06;96873.75;;;21.23;33.95
22964;BME280;11648;49.306;6.934;2024-03-02T13:07:38;96872.78;;;21.24;33.92
22964;BME280;11648;49.306;6.934;2024-03-02T13:10:06;96871.31;;;21.20;33.74
22964;BME280;11648;49.306;6.934;2024-03-02T13:12:35;96879.25;;;21.44;33.83
22964;BME280;11648;49.306;6.934;2024-03-02T13:15:03;96871.22;;;21.33;33.55
22964;BME280;11648;49.306;6.934;2024-03-02T13:17:30;96874.72;;;21.55;33.72